LS Concorde — ZDHJ7 — position and weather

sailwx.info

Track history (hours):
 
Tides and Currents Weather Stations Pressure Air Temp Water Temp Dewpoint Dewpoint Depression Visibility Wind Speed Wind Dir Waves Ship Positions

LS Concorde

Last reported at 2014-Sep-02 20:17 UTC. Time now 2014-Sep-02 21:29 UTC.
Position N 57°24' E 019°08'.

Length 99 m; draft 5 m.

Type: Tanker. MMSI: 236329000.

Date/timePositionNaut miles runAvg speedWind from/ knotsBaromVisibWave heightAir tempDewpointWater temp
2014-Sep-02 20:17N 57°24' E 019°08'124 2.7
2014-Aug-31 21:20N 55°57' E 016°26'810.7
2014-Aug-31 20:33N 55°53' E 016°13'2610.9
2014-Aug-31 18:09N 55°40' E 015°32'711.2
2014-Aug-31 17:33N 55°37' E 015°21'1111.1
2014-Aug-31 16:33N 55°31' E 015°04'1211.7
2014-Aug-31 15:33N 55°26' E 014°46'1212.1
2014-Aug-31 14:33N 55°18' E 014°31'1312.6
2014-Aug-31 13:33N 55°08' E 014°17'1212.1
2014-Aug-31 12:33N 54°60' E 014°01'1312.5
2014-Aug-31 11:32N 54°56' E 013°40'1712.5
2014-Aug-31 10:11N 54°50' E 013°12'812.5
2014-Aug-31 09:33N 54°48' E 012°59'1212.0
2014-Aug-31 08:33N 54°43' E 012°40'1211.8
2014-Aug-31 07:33N 54°37' E 012°23'1111.3
2014-Aug-31 06:33N 54°27' E 012°13'1111.0
2014-Aug-31 05:34N 54°25' E 011°55'1211.6
2014-Aug-31 04:33N 54°28' E 011°35'88 1.8
2014-Aug-29 04:32N 55°53' E 010°53'19 9.6
2014-Aug-29 02:32N 56°08' E 011°13'1110.0
2014-Aug-29 01:25N 56°08' E 011°33'8 9.8
2014-Aug-29 00:33N 56°09' E 011°48'9 9.3
2014-Aug-28 23:33N 56°11' E 012°04'8 8.5
2014-Aug-28 22:33N 56°13' E 012°19'1110.9
2014-Aug-28 21:33N 56°06' E 012°34'1211.7
2014-Aug-28 20:33N 55°56' E 012°44'1111.1
2014-Aug-28 19:33N 55°45' E 012°50'9 9.3
2014-Aug-28 18:33N 55°36' E 012°52'1111.0
2014-Aug-28 17:33N 55°26' E 012°43'9 9.1
2014-Aug-28 16:33N 55°17' E 012°47'1010.3
2014-Aug-28 15:33N 55°16' E 013°05'1010.1
2014-Aug-28 14:33N 55°15' E 013°22'2110.5
2014-Aug-28 12:33N 55°14' E 013°59'1010.1
2014-Aug-28 11:33N 55°14' E 014°17'1110.4
2014-Aug-28 10:31N 55°23' E 014°29'1210.2
2014-Aug-28 09:20N 55°30' E 014°46'2810.1
2014-Aug-28 06:33N 55°44' E 015°29'3210.6
2014-Aug-28 03:33N 55°60' E 016°18'  
Track history (hours):
 
Tides and Currents Weather Stations Pressure Air Temp Water Temp Dewpoint Dewpoint Depression Visibility Wind Speed Wind Dir Waves Ship Positions

LS Concorde

Last reported at 2014-Sep-02 20:17 UTC. Time now 2014-Sep-02 21:29 UTC.
Position N 57°24' E 019°08'.

Length 99 m; draft 5 m.

Type: Tanker. MMSI: 236329000.

Date/timePositionNaut miles runAvg speedWind from/ knotsBaromVisibWave heightAir tempDewpointWater temp
2014-Sep-02 20:17N 57°24' E 019°08'124 2.7
2014-Aug-31 21:20N 55°57' E 016°26'810.7
2014-Aug-31 20:33N 55°53' E 016°13'2610.9
2014-Aug-31 18:09N 55°40' E 015°32'711.2
2014-Aug-31 17:33N 55°37' E 015°21'1111.1
2014-Aug-31 16:33N 55°31' E 015°04'1211.7
2014-Aug-31 15:33N 55°26' E 014°46'1212.1
2014-Aug-31 14:33N 55°18' E 014°31'1312.6
2014-Aug-31 13:33N 55°08' E 014°17'1212.1
2014-Aug-31 12:33N 54°60' E 014°01'1312.5
2014-Aug-31 11:32N 54°56' E 013°40'1712.5
2014-Aug-31 10:11N 54°50' E 013°12'812.5
2014-Aug-31 09:33N 54°48' E 012°59'1212.0
2014-Aug-31 08:33N 54°43' E 012°40'1211.8
2014-Aug-31 07:33N 54°37' E 012°23'1111.3
2014-Aug-31 06:33N 54°27' E 012°13'1111.0
2014-Aug-31 05:34N 54°25' E 011°55'1211.6
2014-Aug-31 04:33N 54°28' E 011°35'88 1.8
2014-Aug-29 04:32N 55°53' E 010°53'19 9.6
2014-Aug-29 02:32N 56°08' E 011°13'1110.0
2014-Aug-29 01:25N 56°08' E 011°33'8 9.8
2014-Aug-29 00:33N 56°09' E 011°48'9 9.3
2014-Aug-28 23:33N 56°11' E 012°04'8 8.5
2014-Aug-28 22:33N 56°13' E 012°19'1110.9
2014-Aug-28 21:33N 56°06' E 012°34'1211.7
2014-Aug-28 20:33N 55°56' E 012°44'1111.1
2014-Aug-28 19:33N 55°45' E 012°50'9 9.3
2014-Aug-28 18:33N 55°36' E 012°52'1111.0
2014-Aug-28 17:33N 55°26' E 012°43'9 9.1
2014-Aug-28 16:33N 55°17' E 012°47'1010.3
2014-Aug-28 15:33N 55°16' E 013°05'1010.1
2014-Aug-28 14:33N 55°15' E 013°22'2110.5
2014-Aug-28 12:33N 55°14' E 013°59'1010.1
2014-Aug-28 11:33N 55°14' E 014°17'1110.4
2014-Aug-28 10:31N 55°23' E 014°29'1210.2
2014-Aug-28 09:20N 55°30' E 014°46'2810.1
2014-Aug-28 06:33N 55°44' E 015°29'3210.6
2014-Aug-28 03:33N 55°60' E 016°18'  

Dump ship's entire track history